X  Sluiten METAR luchtvaart weer gegevens      EHRD Rotterdam The Hague Airport
Temperatuur
16°C Temperatuur
14°C Dauwpunt
88% Vochtigheid



Wind
10 KM/U
6 MPH
3 M/S
5 KTS



270°
W
Huidig weer

Wat bewolking Wat bewolking
Luchtdruk 1010.84 (hPa) - 29.85 (inHg)
Zicht 6 (mijl) - 9.7 (km)
Vliegveld
Vliegveld code EHRD

Locatie : Rotterdam The Hague Airport
Afstand: 27 (km)

Metar:
EHRD 181925Z AUTO 27005KT 240V320 9999 FEW015CB 16/14 Q1011 RETS NOSIG

Tijd: 18-05-2024 19:25 CEST